Time;durP1;ratioP1;P1;durP2;ratioP2;P2;SDS_P1;SDS_P2;PMS_P1;PMS_P2;Temp;Humidity;BMP_temperature;BMP_pressure;BME280_temperature;BME280_humidity;BME280_pressure;Samples;Min_cycle;Max_cycle;Signal;HPM_P1;HPM_P2
2022/07/15 00:02:10;;;;;;;7.45;2.90;;;13.20;99.90;;;;;;5020689;28;20539;-47
2022/07/15 00:04:36;;;;;;;11.70;3.20;;;13.30;99.90;;;;;;5022318;28;20054;-47
2022/07/15 00:07:02;;;;;;;9.75;3.10;;;13.30;99.90;;;;;;5020937;28;20041;-43
2022/07/15 00:12:13;;;;;;;6.10;2.75;;;13.40;99.90;;;;;;5030230;28;20041;-44
2022/07/15 00:14:40;;;;;;;11.90;3.40;;;13.60;99.90;;;;;;5012415;28;20060;-44
2022/07/15 00:17:07;;;;;;;10.20;3.15;;;13.60;99.90;;;;;;5041514;28;20052;-44
2022/07/15 00:19:34;;;;;;;10.43;3.30;;;13.70;99.90;;;;;;5034020;28;20067;-45
2022/07/15 00:22:00;;;;;;;11.68;3.42;;;13.80;99.90;;;;;;5043366;28;20436;-45
2022/07/15 00:24:27;;;;;;;7.78;2.65;;;13.80;99.90;;;;;;5038823;28;20342;-44
2022/07/15 00:26:53;;;;;;;11.68;2.85;;;13.90;99.90;;;;;;5042824;28;20041;-45
2022/07/15 00:29:19;;;;;;;10.02;2.78;;;13.90;99.90;;;;;;5024421;28;20373;-47
2022/07/15 00:31:45;;;;;;;8.25;2.63;;;14.00;99.90;;;;;;5031934;28;20089;-45
2022/07/15 00:34:16;;;;;;;7.80;2.40;;;14.10;99.90;;;;;;5036489;28;20124;-45
2022/07/15 00:36:42;;;;;;;14.02;2.85;;;14.10;99.90;;;;;;5042830;28;20103;-44
2022/07/15 00:39:09;;;;;;;9.65;2.85;;;14.20;99.90;;;;;;5042847;28;20060;-45
2022/07/15 00:41:39;;;;;;;11.88;2.88;;;14.20;99.90;;;;;;5043816;28;20088;-45
2022/07/15 00:44:05;;;;;;;12.88;3.15;;;14.20;99.90;;;;;;5042380;28;20889;-44
2022/07/15 00:46:31;;;;;;;9.98;2.60;;;14.30;99.90;;;;;;5031944;28;20091;-45
2022/07/15 00:48:58;;;;;;;12.52;3.20;;;14.30;99.90;;;;;;5044293;28;20056;-46
2022/07/15 00:51:24;;;;;;;12.82;2.38;;;14.30;99.90;;;;;;5022883;28;20055;-51
2022/07/15 00:53:51;;;;;;;10.15;2.45;;;14.40;99.90;;;;;;5021000;28;20061;-49
2022/07/15 00:56:19;;;;;;;8.60;2.40;;;14.40;99.90;;;;;;5023218;28;20055;-45
2022/07/15 00:58:47;;;;;;;10.63;2.85;;;14.40;99.90;;;;;;5042166;28;20053;-44
2022/07/15 01:01:18;;;;;;;11.52;2.55;;;14.40;99.90;;;;;;5013373;28;20520;-46
2022/07/15 01:03:47;;;;;;;11.38;3.00;;;14.50;99.90;;;;;;5042907;28;20055;-46
2022/07/15 01:06:12;;;;;;;7.47;2.33;;;14.50;99.90;;;;;;5018994;28;20127;-46
2022/07/15 01:08:38;;;;;;;6.20;2.08;;;14.50;99.90;;;;;;5033117;28;20060;-44
2022/07/15 01:11:04;;;;;;;7.90;2.58;;;14.50;99.90;;;;;;5004835;28;20064;-44
2022/07/15 01:13:30;;;;;;;8.75;2.88;;;14.50;99.90;;;;;;5006885;28;20077;-45
2022/07/15 01:15:58;;;;;;;8.00;1.90;;;14.50;99.90;;;;;;5023357;28;20140;-47
2022/07/15 01:18:23;;;;;;;7.75;2.63;;;14.40;99.90;;;;;;5035779;28;20059;-43
2022/07/15 01:20:49;;;;;;;9.20;2.72;;;14.40;99.90;;;;;;5042795;28;20048;-45
2022/07/15 01:23:16;;;;;;;8.70;2.60;;;14.30;99.90;;;;;;5042827;28;20045;-44
2022/07/15 01:25:47;;;;;;;9.13;2.72;;;14.30;99.90;;;;;;5043258;28;20137;-44
2022/07/15 01:28:13;;;;;;;4.82;2.47;;;14.30;99.90;;;;;;5013771;28;20158;-44
2022/07/15 01:30:39;;;;;;;10.02;2.67;;;14.20;99.90;;;;;;5034738;28;20042;-43
2022/07/15 01:33:06;;;;;;;10.20;2.67;;;14.10;99.90;;;;;;5041904;28;20056;-46
2022/07/15 01:35:31;;;;;;;8.85;2.45;;;14.10;99.90;;;;;;5024715;28;20049;-44
2022/07/15 01:37:57;;;;;;;7.18;2.05;;;14.00;99.90;;;;;;5032574;28;20506;-43
2022/07/15 01:40:23;;;;;;;10.05;2.40;;;14.00;99.90;;;;;;5045992;28;20475;-46
2022/07/15 01:42:48;;;;;;;11.00;2.28;;;14.00;99.90;;;;;;5022354;28;20057;-45
2022/07/15 01:45:14;;;;;;;10.60;2.90;;;13.90;99.90;;;;;;5035011;28;20484;-44
2022/07/15 01:47:45;;;;;;;7.85;2.50;;;13.80;99.90;;;;;;5031939;28;20053;-47
2022/07/15 01:50:11;;;;;;;8.75;2.30;;;13.80;99.90;;;;;;5025029;28;20135;-45
2022/07/15 01:52:37;;;;;;;7.70;3.33;;;13.70;99.90;;;;;;5043169;28;20496;-47
2022/07/15 01:55:04;;;;;;;7.35;2.10;;;13.60;99.90;;;;;;5025801;28;21117;-44
2022/07/15 01:57:30;;;;;;;9.23;2.38;;;13.60;99.90;;;;;;5016555;28;20045;-44
2022/07/15 01:59:56;;;;;;;8.90;2.50;;;13.50;99.90;;;;;;5034910;28;20514;-44
2022/07/15 02:02:22;;;;;;;7.30;2.25;;;13.50;99.90;;;;;;5045811;28;20041;-43
2022/07/15 02:04:48;;;;;;;9.65;2.35;;;13.40;99.90;;;;;;5033830;28;20049;-45
2022/07/15 02:16:16;;;;;;;8.35;2.20;;;13.10;99.90;;;;;;5027801;28;20416;-47
2022/07/15 02:18:42;;;;;;;8.85;2.70;;;13.00;99.90;;;;;;5035599;28;20103;-44
2022/07/15 02:21:08;;;;;;;8.43;2.22;;;13.00;99.90;;;;;;5016503;28;20136;-43
2022/07/15 02:23:33;;;;;;;4.95;2.00;;;12.90;99.90;;;;;;5016189;28;20240;-45
2022/07/15 02:25:59;;;;;;;9.32;2.42;;;12.90;99.90;;;;;;5045548;28;20048;-44
2022/07/15 02:28:25;;;;;;;8.77;2.45;;;12.80;99.90;;;;;;5027735;28;20052;-46
2022/07/15 02:30:51;;;;;;;7.40;2.10;;;12.70;99.90;;;;;;5025740;28;20053;-44
2022/07/15 02:33:17;;;;;;;7.57;2.13;;;12.70;99.90;;;;;;5025136;28;20072;-44
2022/07/15 02:35:42;;;;;;;7.90;2.33;;;12.70;99.90;;;;;;5025287;28;20049;-44
2022/07/15 02:38:08;;;;;;;5.30;2.03;;;12.60;99.90;;;;;;5007822;28;20057;-44
2022/07/15 02:40:34;;;;;;;4.32;1.80;;;12.60;99.90;;;;;;5006635;28;20088;-45
2022/07/15 02:43:02;;;;;;;6.80;1.77;;;12.50;99.90;;;;;;5025988;28;20096;-46
2022/07/15 02:45:33;;;;;;;6.43;1.85;;;12.50;99.90;;;;;;5026458;28;20049;-45
2022/07/15 02:47:59;;;;;;;6.10;2.00;;;12.50;99.90;;;;;;5025715;28;20411;-45
2022/07/15 02:50:24;;;;;;;9.82;2.45;;;12.30;99.90;;;;;;5039039;28;20056;-45
2022/07/15 02:52:50;;;;;;;6.35;1.83;;;12.30;99.90;;;;;;4994375;28;20547;-46
2022/07/15 02:55:19;;;;;;;7.05;2.20;;;12.20;99.90;;;;;;5038352;28;20055;-47
2022/07/15 02:57:45;;;;;;;7.13;2.40;;;12.10;99.90;;;;;;5045024;28;20106;-44
2022/07/15 03:00:14;;;;;;;6.38;1.88;;;12.10;99.90;;;;;;5014257;28;20061;-44
2022/07/15 03:02:40;;;;;;;8.98;2.05;;;12.00;99.90;;;;;;5023680;28;20107;-45
2022/07/15 03:05:07;;;;;;;6.57;1.98;;;12.10;99.90;;;;;;5042505;28;20044;-44
2022/07/15 03:07:33;;;;;;;5.95;2.20;;;12.10;99.90;;;;;;5045137;28;20057;-42
2022/07/15 03:09:59;;;;;;;10.77;2.50;;;12.00;99.90;;;;;;5040036;28;20128;-44
2022/07/15 03:12:25;;;;;;;6.20;1.98;;;12.00;99.90;;;;;;5033677;28;20139;-45
2022/07/15 03:14:51;;;;;;;9.57;2.20;;;12.10;99.90;;;;;;5038377;28;20869;-43
2022/07/15 03:17:19;;;;;;;6.85;2.38;;;12.10;99.90;;;;;;5048022;28;20107;-46
2022/07/15 03:19:45;;;;;;;7.65;2.05;;;12.00;99.90;;;;;;5029820;28;20057;-46
2022/07/15 03:22:11;;;;;;;7.20;2.40;;;12.00;99.90;;;;;;5031771;28;20058;-47
2022/07/15 03:24:40;;;;;;;6.80;2.40;;;12.10;99.90;;;;;;5016055;28;20046;-47
2022/07/15 03:27:06;;;;;;;7.43;2.40;;;12.00;99.90;;;;;;5064634;28;20045;-43
2022/07/15 03:29:32;;;;;;;7.35;1.85;;;12.00;99.90;;;;;;5064451;28;20051;-44
2022/07/15 03:31:57;;;;;;;9.70;2.70;;;12.00;99.90;;;;;;5045174;28;20049;-44
2022/07/15 03:34:25;;;;;;;6.68;2.20;;;12.00;99.90;;;;;;5035324;28;20045;-45
2022/07/15 03:36:51;;;;;;;4.43;1.65;;;11.90;99.90;;;;;;5044132;28;20502;-44
2022/07/15 03:39:16;;;;;;;6.47;1.67;;;11.90;99.90;;;;;;5044391;28;20506;-44
2022/07/15 03:41:42;;;;;;;5.38;1.75;;;11.90;99.90;;;;;;5044069;28;20045;-43
2022/07/15 03:44:08;;;;;;;6.13;1.70;;;11.90;99.90;;;;;;5040602;28;20048;-44
2022/07/15 03:46:34;;;;;;;9.57;2.45;;;11.90;99.90;;;;;;5008540;28;20057;-45
2022/07/15 03:49:00;;;;;;;7.53;2.05;;;11.90;99.90;;;;;;5008606;28;20128;-44
2022/07/15 03:51:30;;;;;;;12.70;2.30;;;11.90;99.90;;;;;;5043795;28;20418;-46
2022/07/15 03:54:01;;;;;;;5.25;1.92;;;11.80;99.90;;;;;;5043743;28;20053;-44
2022/07/15 03:56:28;;;;;;;5.07;1.60;;;11.80;99.90;;;;;;5041882;28;20053;-45
2022/07/15 03:58:56;;;;;;;2.80;1.73;;;11.80;99.90;;;;;;5040738;28;20071;-44
2022/07/15 04:01:22;;;;;;;4.20;2.28;;;11.80;99.90;;;;;;5043584;28;20051;-43
2022/07/15 04:03:49;;;;;;;4.47;1.58;;;11.80;99.90;;;;;;5038913;28;20049;-45
2022/07/15 04:06:16;;;;;;;7.30;2.10;;;11.80;99.90;;;;;;5016201;28;20056;-43
2022/07/15 04:08:43;;;;;;;6.82;1.95;;;11.80;99.90;;;;;;5019346;28;20060;-45
2022/07/15 04:11:09;;;;;;;9.23;2.03;;;11.80;99.90;;;;;;5018584;28;20063;-45
2022/07/15 04:13:35;;;;;;;5.43;1.77;;;11.80;99.90;;;;;;5025460;28;20148;-44
2022/07/15 04:16:01;;;;;;;9.35;2.33;;;11.80;99.90;;;;;;5043243;28;20206;-44
2022/07/15 04:18:26;;;;;;;4.43;1.50;;;11.90;99.90;;;;;;5030574;28;20515;-45
2022/07/15 04:20:55;;;;;;;6.47;1.95;;;12.00;99.90;;;;;;5016848;28;20116;-44
2022/07/15 04:23:21;;;;;;;5.55;1.73;;;12.00;99.90;;;;;;5042874;28;20072;-44
2022/07/15 04:25:48;;;;;;;6.88;1.50;;;12.10;99.90;;;;;;5036674;28;20195;-44
2022/07/15 04:28:14;;;;;;;6.47;1.58;;;12.20;99.90;;;;;;5034282;28;20088;-45
2022/07/15 04:30:39;;;;;;;5.30;1.60;;;12.20;99.90;;;;;;5034016;28;20129;-44
2022/07/15 04:33:05;;;;;;;4.97;1.35;;;12.20;99.90;;;;;;5039602;28;20140;-48
2022/07/15 04:35:31;;;;;;;3.30;1.20;;;12.30;99.90;;;;;;5046514;28;20080;-46
2022/07/15 04:37:57;;;;;;;5.22;1.20;;;12.30;99.90;;;;;;5010054;28;20057;-44
2022/07/15 04:40:25;;;;;;;4.38;1.27;;;12.50;99.90;;;;;;5043342;28;20132;-45
2022/07/15 04:42:51;;;;;;;4.20;1.10;;;12.60;99.90;;;;;;5035630;28;20048;-44
2022/07/15 04:45:17;;;;;;;2.63;1.30;;;12.70;99.90;;;;;;5043298;28;20103;-44
2022/07/15 04:47:43;;;;;;;6.88;1.35;;;13.30;99.90;;;;;;5042884;28;20057;-45
2022/07/15 04:52:53;;;;;;;3.25;1.20;;;16.20;99.90;;;;;;5042534;28;20441;-44
2022/07/15 04:55:19;;;;;;;6.85;1.73;;;17.90;99.90;;;;;;5008235;28;20049;-45
2022/07/15 04:57:44;;;;;;;4.30;1.83;;;19.20;99.90;;;;;;5042605;28;20557;-44
2022/07/15 05:00:10;;;;;;;3.25;1.15;;;20.40;99.90;;;;;;5038093;28;20041;-45
2022/07/15 05:02:36;;;;;;;2.97;0.90;;;20.70;99.90;;;;;;5025176;28;20060;-46
2022/07/15 05:05:03;;;;;;;4.55;1.00;;;20.00;99.90;;;;;;5013237;28;20052;-44
2022/07/15 05:07:28;;;;;;;4.90;1.65;;;19.60;99.90;;;;;;5043180;28;20056;-45
2022/07/15 05:09:54;;;;;;;2.25;0.90;;;19.80;99.90;;;;;;5035830;28;20068;-45
2022/07/15 05:12:21;;;;;;;3.95;1.20;;;20.20;99.90;;;;;;5023418;28;20131;-45
2022/07/15 05:14:47;;;;;;;2.90;1.00;;;20.70;99.90;;;;;;5042467;28;20053;-46
2022/07/15 05:17:12;;;;;;;3.53;1.23;;;20.60;99.90;;;;;;5045061;28;20111;-47
2022/07/15 05:19:38;;;;;;;5.35;1.33;;;20.10;99.90;;;;;;5034656;28;20111;-44
2022/07/15 05:22:04;;;;;;;4.80;1.15;;;19.40;99.90;;;;;;5011540;28;20084;-45
2022/07/15 05:24:30;;;;;;;3.85;1.52;;;18.70;99.90;;;;;;5037459;28;20048;-44
2022/07/15 05:26:58;;;;;;;3.45;1.15;;;18.30;99.90;;;;;;5042251;28;20059;-45
2022/07/15 05:29:25;;;;;;;3.20;1.25;;;17.90;99.90;;;;;;5024520;28;20110;-45
2022/07/15 05:31:51;;;;;;;3.20;0.88;;;17.60;99.90;;;;;;5025834;28;20527;-44
2022/07/15 05:34:22;;;;;;;3.53;0.98;;;17.50;99.90;;;;;;5037812;28;20048;-44
2022/07/15 05:36:48;;;;;;;2.30;0.77;;;17.60;99.90;;;;;;5042608;28;20163;-46
2022/07/15 05:39:14;;;;;;;2.00;1.10;;;18.00;99.90;;;;;;5030340;28;20059;-46
2022/07/15 05:41:40;;;;;;;2.80;1.02;;;18.20;99.90;;;;;;5031727;28;20042;-45
2022/07/15 05:44:05;;;;;;;3.65;1.05;;;18.40;99.90;;;;;;5040099;28;20920;-44
2022/07/15 05:46:31;;;;;;;2.33;0.88;;;19.60;99.90;;;;;;5042320;28;20915;-44
2022/07/15 05:48:57;;;;;;;2.33;0.93;;;21.40;99.90;;;;;;5036836;28;20049;-46
2022/07/15 05:51:23;;;;;;;3.45;0.73;;;23.40;99.80;;;;;;5043540;28;20128;-47
2022/07/15 05:53:48;;;;;;;2.22;0.98;;;25.20;98.20;;;;;;5046700;28;20055;-48
2022/07/15 05:56:15;;;;;;;1.15;0.73;;;25.20;95.70;;;;;;5046172;28;20053;-46
2022/07/15 05:58:40;;;;;;;2.20;0.90;;;25.10;95.40;;;;;;5043232;28;20052;-46
2022/07/15 06:01:06;;;;;;;2.65;0.70;;;25.30;94.90;;;;;;5018079;28;20401;-44
2022/07/15 06:03:32;;;;;;;6.57;0.88;;;24.70;94.30;;;;;;5033537;28;20067;-46
2022/07/15 06:05:58;;;;;;;1.55;0.68;;;23.90;94.50;;;;;;5046236;28;20236;-46
2022/07/15 06:08:24;;;;;;;3.85;0.90;;;23.50;95.20;;;;;;5046493;28;20128;-45
2022/07/15 06:10:50;;;;;;;2.55;0.82;;;23.10;95.10;;;;;;5036244;28;20527;-44
2022/07/15 06:13:15;;;;;;;4.32;1.20;;;22.40;95.60;;;;;;5015711;28;20156;-45
2022/07/15 06:15:41;;;;;;;2.33;0.98;;;22.40;96.10;;;;;;5045760;28;20057;-45
2022/07/15 06:18:07;;;;;;;2.15;1.40;;;23.90;96.00;;;;;;5046225;28;20115;-45
2022/07/15 06:20:33;;;;;;;3.15;1.00;;;25.50;94.80;;;;;;5036123;28;20041;-45
2022/07/15 06:22:59;;;;;;;5.68;1.20;;;26.60;92.60;;;;;;5040009;28;20049;-45
2022/07/15 06:25:25;;;;;;;3.35;0.80;;;27.70;92.40;;;;;;5045415;28;20091;-45
2022/07/15 06:27:51;;;;;;;3.95;0.80;;;28.90;91.60;;;;;;5045552;28;20048;-45
2022/07/15 06:30:17;;;;;;;2.58;1.00;;;29.70;90.20;;;;;;5039500;28;20096;-45
2022/07/15 06:32:43;;;;;;;1.92;0.63;;;30.30;87.70;;;;;;5041655;28;20103;-47
2022/07/15 06:35:09;;;;;;;3.35;0.85;;;30.80;85.60;;;;;;5026101;28;20052;-45
2022/07/15 06:37:35;;;;;;;1.95;0.73;;;31.30;84.30;;;;;;5045475;28;20040;-48
2022/07/15 06:40:01;;;;;;;2.13;1.17;;;31.80;82.80;;;;;;5045696;28;20574;-46
2022/07/15 06:42:27;;;;;;;1.55;0.77;;;31.90;80.70;;;;;;5028024;28;20052;-46
2022/07/15 06:44:53;;;;;;;2.25;0.85;;;31.60;78.90;;;;;;5040450;28;20052;-46
2022/07/15 06:47:18;;;;;;;2.00;1.00;;;31.00;78.90;;;;;;5046357;28;20045;-47
2022/07/15 06:49:44;;;;;;;1.30;0.75;;;31.20;79.20;;;;;;5044070;28;20055;-47
2022/07/15 06:52:10;;;;;;;3.88;1.13;;;31.20;78.40;;;;;;5042359;28;20053;-46
2022/07/15 06:54:35;;;;;;;3.45;1.10;;;31.40;78.10;;;;;;5044901;28;20053;-45
2022/07/15 06:57:01;;;;;;;3.63;1.10;;;31.40;77.60;;;;;;5025908;28;20841;-47
2022/07/15 06:59:27;;;;;;;3.05;1.10;;;31.20;77.80;;;;;;5040639;28;20049;-46
2022/07/15 07:01:53;;;;;;;3.58;1.00;;;30.40;78.10;;;;;;5011070;28;20499;-48
2022/07/15 07:04:19;;;;;;;4.80;1.00;;;29.50;77.30;;;;;;5049519;28;20045;-46
2022/07/15 07:06:45;;;;;;;2.50;0.93;;;28.80;78.80;;;;;;5016491;28;20077;-48
2022/07/15 07:09:12;;;;;;;2.88;0.90;;;28.90;80.10;;;;;;5041614;28;20056;-48
2022/07/15 07:11:39;;;;;;;2.45;1.00;;;29.20;79.50;;;;;;5027429;28;20045;-44
2022/07/15 07:14:06;;;;;;;5.90;1.10;;;29.60;78.50;;;;;;5021672;28;20135;-43
2022/07/15 07:16:32;;;;;;;2.92;0.82;;;30.20;78.00;;;;;;5028108;28;20061;-42
2022/07/15 07:18:57;;;;;;;3.95;1.05;;;30.90;77.50;;;;;;5032023;28;20091;-43
2022/07/15 07:21:23;;;;;;;3.65;0.90;;;30.70;74.90;;;;;;5045186;28;20139;-44
2022/07/15 07:23:49;;;;;;;1.75;0.80;;;30.60;73.90;;;;;;5044720;28;20132;-43
2022/07/15 07:26:16;;;;;;;3.45;0.80;;;30.70;75.70;;;;;;5042250;28;20041;-44
2022/07/15 07:28:41;;;;;;;3.05;0.90;;;30.20;76.50;;;;;;5016022;28;20487;-42
2022/07/15 07:31:09;;;;;;;5.78;1.02;;;29.60;76.50;;;;;;5041812;28;20048;-43
2022/07/15 07:33:35;;;;;;;3.63;0.80;;;29.10;77.60;;;;;;5033992;28;20041;-45
2022/07/15 07:36:03;;;;;;;2.60;0.75;;;28.60;77.90;;;;;;5002817;28;20450;-44
2022/07/15 07:38:29;;;;;;;1.25;0.70;;;27.80;78.40;;;;;;5046972;28;20620;-45
2022/07/15 07:40:55;;;;;;;2.58;0.90;;;27.10;79.00;;;;;;5042582;28;20220;-43
2022/07/15 07:43:21;;;;;;;2.38;0.80;;;26.40;79.70;;;;;;5035429;28;20041;-47
2022/07/15 07:45:47;;;;;;;4.95;1.42;;;26.10;80.40;;;;;;5035101;28;20049;-45
2022/07/15 07:48:13;;;;;;;2.53;0.70;;;25.50;81.20;;;;;;5018050;28;20052;-46
2022/07/15 07:50:40;;;;;;;3.40;0.90;;;25.10;81.80;;;;;;5024756;28;20474;-48
2022/07/15 07:53:06;;;;;;;2.40;1.02;;;25.10;82.50;;;;;;5046939;28;20131;-45
2022/07/15 07:55:32;;;;;;;5.18;0.95;;;25.50;82.90;;;;;;5023319;28;20096;-45
2022/07/15 07:57:59;;;;;;;2.03;1.00;;;25.10;82.50;;;;;;5022013;28;20438;-46
2022/07/15 08:00:26;;;;;;;2.50;1.00;;;24.60;82.30;;;;;;5028636;28;20072;-44
2022/07/15 08:02:54;;;;;;;3.58;1.10;;;24.20;83.00;;;;;;5013881;28;20139;-47
2022/07/15 08:05:20;;;;;;;4.85;1.00;;;23.60;83.70;;;;;;5039536;28;20040;-46
2022/07/15 08:07:46;;;;;;;4.43;0.80;;;23.20;84.30;;;;;;5038982;28;20470;-45
2022/07/15 08:10:13;;;;;;;1.95;1.17;;;22.80;85.10;;;;;;5041591;28;20340;-46
2022/07/15 08:12:40;;;;;;;2.30;0.60;;;22.40;85.50;;;;;;5040332;28;20385;-47
2022/07/15 08:15:10;;;;;;;1.95;0.80;;;22.00;86.80;;;;;;5010638;28;20053;-47
2022/07/15 08:17:37;;;;;;;3.67;0.90;;;21.70;87.70;;;;;;5030080;28;20064;-45
2022/07/15 08:20:08;;;;;;;3.72;0.82;;;21.80;89.30;;;;;;5031983;28;20053;-44
2022/07/15 08:22:35;;;;;;;2.20;0.70;;;22.30;89.80;;;;;;5026153;28;20046;-45
2022/07/15 08:25:02;;;;;;;4.30;0.80;;;22.60;88.40;;;;;;5006094;28;20053;-42
2022/07/15 08:27:27;;;;;;;1.77;0.93;;;23.10;89.20;;;;;;5025116;28;20045;-46
2022/07/15 08:29:53;;;;;;;1.13;0.60;;;22.90;86.60;;;;;;5023818;28;20749;-45
2022/07/15 08:32:19;;;;;;;2.10;0.80;;;22.90;86.90;;;;;;5030190;28;20495;-47
2022/07/15 08:34:47;;;;;;;3.53;0.77;;;23.20;87.40;;;;;;5031739;28;20766;-46
2022/07/15 08:37:13;;;;;;;3.00;0.70;;;23.10;86.30;;;;;;5021588;28;20275;-46
2022/07/15 08:39:40;;;;;;;1.90;0.57;;;23.20;87.30;;;;;;5027744;28;20042;-48
2022/07/15 08:42:06;;;;;;;2.42;0.70;;;23.30;86.80;;;;;;5025230;28;20116;-48
2022/07/15 08:44:34;;;;;;;3.65;0.70;;;23.10;86.20;;;;;;5030768;28;20052;-46
2022/07/15 08:47:05;;;;;;;2.83;0.70;;;22.80;87.60;;;;;;5025373;28;20809;-46
2022/07/15 08:49:33;;;;;;;3.05;0.80;;;22.40;88.20;;;;;;5020212;28;20045;-50
2022/07/15 08:52:01;;;;;;;1.02;0.65;;;22.00;87.40;;;;;;5038750;28;20103;-43
2022/07/15 08:54:28;;;;;;;2.42;0.68;;;21.80;88.30;;;;;;5042240;28;20926;-43
2022/07/15 08:56:55;;;;;;;3.35;0.60;;;21.90;88.70;;;;;;5019932;28;20068;-44
2022/07/15 08:59:21;;;;;;;3.78;0.80;;;21.80;88.40;;;;;;5033434;28;20128;-43
2022/07/15 09:01:48;;;;;;;1.70;0.80;;;21.90;88.80;;;;;;5039218;28;20384;-45
2022/07/15 09:04:15;;;;;;;1.77;0.68;;;22.20;89.00;;;;;;5032716;28;20045;-43
2022/07/15 09:06:44;;;;;;;2.65;0.68;;;22.60;88.30;;;;;;5036483;28;20072;-44
2022/07/15 09:09:25;;;;;;;2.72;0.90;;;22.80;87.70;;;;;;5041007;28;20149;-44
2022/07/15 09:12:12;;;;;;;1.15;0.50;;;22.90;87.00;;;;;;5037228;28;20072;-44
2022/07/15 09:14:41;;;;;;;1.90;1.10;;;22.60;85.70;;;;;;5036863;28;20045;-45
2022/07/15 09:17:10;;;;;;;4.32;0.80;;;22.40;86.60;;;;;;5038268;28;20044;-46
2022/07/15 09:20:07;;;;;;;1.40;0.85;;;22.10;88.50;;;;;;5018609;28;20045;-44
2022/07/15 09:22:55;;;;;;;3.90;1.08;;;21.90;89.00;;;;;;5034719;28;20033;-42
2022/07/15 09:25:22;;;;;;;2.05;0.77;;;21.70;88.50;;;;;;5023700;28;20064;-42
2022/07/15 09:27:49;;;;;;;3.33;1.10;;;22.00;89.10;;;;;;5019112;28;20053;-44
2022/07/15 09:33:36;;;;;;;;;;;22.20;90.20;;;;;;5038660;28;20188;-44
2022/07/15 09:36:08;;;;;;;1.38;0.50;;;22.20;90.20;;;;;;5038158;28;19968;-45
2022/07/15 09:38:40;;;;;;;2.55;0.80;;;22.30;90.00;;;;;;5037106;28;20049;-43
2022/07/15 09:41:27;;;;;;;3.95;1.10;;;22.30;90.20;;;;;;5036135;28;20083;-42
2022/07/15 09:44:16;;;;;;;3.80;0.80;;;22.20;90.30;;;;;;5037089;28;20388;-46
2022/07/15 09:46:49;;;;;;;3.70;0.80;;;22.00;89.40;;;;;;5039859;28;20526;-42
2022/07/15 09:49:30;;;;;;;2.17;0.80;;;21.80;90.20;;;;;;5017116;28;20049;-42
2022/07/15 09:52:08;;;;;;;4.88;0.90;;;21.60;90.50;;;;;;5042899;28;20041;-43
2022/07/15 09:54:40;;;;;;;3.45;0.60;;;21.80;91.00;;;;;;5020651;28;20073;-43
2022/07/15 09:57:08;;;;;;;2.58;0.90;;;22.30;90.20;;;;;;5040578;28;20057;-46
2022/07/15 09:59:35;;;;;;;1.35;0.65;;;22.70;88.20;;;;;;5017143;28;20048;-44
2022/07/15 10:02:02;;;;;;;1.38;0.70;;;22.60;87.40;;;;;;5038698;28;20048;-46
2022/07/15 10:04:30;;;;;;;2.13;0.88;;;22.40;88.90;;;;;;5037425;28;20736;-42
2022/07/15 10:06:57;;;;;;;1.65;0.98;;;22.10;89.50;;;;;;5015522;28;20099;-45
2022/07/15 10:09:26;;;;;;;1.52;0.85;;;22.20;90.50;;;;;;5032594;28;20654;-42
2022/07/15 10:11:56;;;;;;;4.68;0.70;;;22.40;90.50;;;;;;5037200;28;20044;-43
2022/07/15 10:14:43;;;;;;;1.67;0.63;;;22.70;87.40;;;;;;5040104;28;20044;-44
2022/07/15 10:17:21;;;;;;;2.22;0.70;;;22.70;88.90;;;;;;5032067;28;20054;-41
2022/07/15 10:20:16;;;;;;;2.97;0.85;;;22.90;89.60;;;;;;5037231;28;20114;-43
2022/07/15 10:23:15;;;;;;;3.35;0.98;;;23.10;88.50;;;;;;5035503;28;20057;-44
2022/07/15 10:25:59;;;;;;;2.22;0.65;;;23.30;88.40;;;;;;5032219;28;20132;-43
2022/07/15 10:28:50;;;;;;;3.05;0.82;;;23.10;86.00;;;;;;5022437;28;20053;-42
2022/07/15 10:31:28;;;;;;;2.72;0.70;;;23.20;86.90;;;;;;5036170;28;20076;-47
2022/07/15 10:34:00;;;;;;;0.45;0.45;;;23.50;87.90;;;;;;5008561;28;20412;-44
2022/07/15 10:36:26;;;;;;;1.90;0.82;;;23.90;88.30;;;;;;5032608;28;20053;-43
2022/07/15 10:39:03;;;;;;;3.00;0.77;;;24.00;86.20;;;;;;5016110;28;20098;-43
2022/07/15 10:41:47;;;;;;;1.77;0.60;;;23.90;84.30;;;;;;5026280;28;20454;-44
2022/07/15 10:44:13;;;;;;;3.72;0.93;;;23.70;85.30;;;;;;5023923;28;20050;-44
2022/07/15 10:46:38;;;;;;;2.65;0.60;;;23.70;84.70;;;;;;5024192;28;20053;-45
2022/07/15 10:49:08;;;;;;;0.75;0.60;;;23.70;85.50;;;;;;5023649;28;20466;-42
2022/07/15 10:51:37;;;;;;;1.13;0.50;;;24.20;87.50;;;;;;5023262;28;20053;-42
2022/07/15 10:54:03;;;;;;;4.13;0.60;;;24.50;84.70;;;;;;5022729;28;20511;-43
2022/07/15 10:56:31;;;;;;;1.75;0.60;;;24.50;84.70;;;;;;5023152;28;20050;-43
2022/07/15 10:59:16;;;;;;;1.73;0.55;;;24.40;83.90;;;;;;5033887;28;20045;-44
2022/07/15 11:01:44;;;;;;;3.38;0.70;;;24.40;82.70;;;;;;5036752;28;20183;-43
2022/07/15 11:04:23;;;;;;;0.85;0.80;;;24.00;83.60;;;;;;5032254;28;20051;-43
2022/07/15 11:07:06;;;;;;;3.70;0.73;;;24.10;84.00;;;;;;5034823;28;20088;-41
2022/07/15 11:09:47;;;;;;;1.88;0.75;;;24.00;85.70;;;;;;5012330;28;20044;-42
2022/07/15 11:12:29;;;;;;;1.55;0.55;;;23.70;85.70;;;;;;5032145;28;20037;-43
2022/07/15 11:14:55;;;;;;;1.48;0.80;;;23.60;86.90;;;;;;5016981;28;20053;-44
2022/07/15 11:17:33;;;;;;;1.50;0.80;;;23.50;85.90;;;;;;5026991;28;20044;-45
2022/07/15 11:20:09;;;;;;;2.25;0.73;;;23.50;85.10;;;;;;5019112;28;20045;-44
2022/07/15 11:22:41;;;;;;;0.93;0.70;;;23.30;86.70;;;;;;5039828;28;20048;-43
2022/07/15 11:25:16;;;;;;;5.90;1.45;;;23.20;85.50;;;;;;5010562;28;20089;-47
2022/07/15 11:27:53;;;;;;;1.98;0.70;;;23.30;86.60;;;;;;5035697;28;20045;-44
2022/07/15 11:30:19;;;;;;;4.30;1.40;;;23.30;86.60;;;;;;5029004;28;20037;-44
2022/07/15 11:32:45;;;;;;;2.35;0.70;;;23.30;86.50;;;;;;5029406;28;20529;-44
2022/07/15 11:35:11;;;;;;;2.50;0.80;;;23.20;85.90;;;;;;5025538;28;20492;-45
2022/07/15 11:37:38;;;;;;;2.67;0.60;;;23.20;86.50;;;;;;5011790;28;20080;-43
2022/07/15 11:44:28;;;;;;;2.60;0.93;;;23.20;85.80;;;;;;5027433;28;20047;-44
2022/07/15 11:45:41;;;;;;;1.50;0.98;;;23.00;87.50;;;;;;5029700;28;19932;-44
2022/07/15 11:48:08;;;;;;;3.17;0.90;;;23.10;88.30;;;;;;5039193;28;20053;-43
2022/07/15 11:50:37;;;;;;;1.95;0.93;;;22.90;87.10;;;;;;5041620;28;20053;-44
2022/07/15 11:53:15;;;;;;;6.20;1.27;;;22.90;87.40;;;;;;5041175;28;20388;-43
2022/07/15 11:55:55;;;;;;;3.60;0.80;;;22.70;87.20;;;;;;5027913;28;20356;-45
2022/07/15 11:58:30;;;;;;;3.35;0.95;;;22.60;88.10;;;;;;4998505;28;20424;-44
2022/07/15 12:00:57;;;;;;;4.10;0.80;;;22.50;88.10;;;;;;5027226;28;20636;-43
2022/07/15 12:03:32;;;;;;;3.05;0.77;;;22.30;88.80;;;;;;5028192;28;20069;-49
2022/07/15 12:06:31;;;;;;;3.25;1.00;;;22.20;90.00;;;;;;5034962;28;20120;-46
2022/07/15 12:08:59;;;;;;;2.40;0.77;;;22.10;90.40;;;;;;5029503;28;20045;-44
2022/07/15 12:11:34;;;;;;;3.55;0.80;;;22.00;90.10;;;;;;5027758;28;20091;-44
2022/07/15 12:14:04;;;;;;;2.15;0.73;;;22.10;90.80;;;;;;5044314;28;20474;-46
2022/07/15 12:16:34;;;;;;;2.40;0.90;;;22.30;90.70;;;;;;5025742;28;20157;-44
2022/07/15 12:19:08;;;;;;;4.75;1.58;;;22.70;91.10;;;;;;5041143;28;20651;-45
2022/07/15 12:21:36;;;;;;;2.85;1.30;;;23.00;90.90;;;;;;5040794;28;20136;-46
2022/07/15 12:24:11;;;;;;;3.15;1.00;;;23.00;90.10;;;;;;5043248;28;20400;-45
2022/07/15 12:26:39;;;;;;;3.30;0.90;;;22.90;90.00;;;;;;5029209;28;20092;-45
2022/07/15 12:29:08;;;;;;;1.58;0.90;;;22.90;89.90;;;;;;5042465;28;20148;-44
2022/07/15 12:31:37;;;;;;;5.07;1.10;;;23.00;90.00;;;;;;5009648;28;20075;-46
2022/07/15 12:34:04;;;;;;;1.58;0.60;;;23.10;90.00;;;;;;5040520;28;20056;-48
2022/07/15 12:36:33;;;;;;;1.98;1.00;;;23.10;89.20;;;;;;5021774;28;20053;-45
2022/07/15 12:39:16;;;;;;;3.35;0.80;;;22.90;88.50;;;;;;5024421;28;20063;-46
2022/07/15 12:41:44;;;;;;;;;;;22.90;88.90;;;;;;5030006;28;20107;-45
2022/07/15 12:44:11;;;;;;;2.72;0.73;;;22.80;89.60;;;;;;5056727;28;19924;-45
2022/07/15 12:46:52;;;;;;;4.07;1.25;;;22.60;90.20;;;;;;5062733;28;20052;-45
2022/07/15 12:49:45;;;;;;;3.13;1.25;;;22.60;90.10;;;;;;5062161;28;20055;-45
2022/07/15 12:52:44;;;;;;;3.40;0.90;;;22.50;90.40;;;;;;5037738;28;20060;-49
2022/07/15 12:55:25;;;;;;;3.90;1.35;;;22.40;90.70;;;;;;4950252;28;20195;-44
2022/07/15 12:57:51;;;;;;;2.75;1.00;;;22.20;91.00;;;;;;4942159;28;20071;-47
2022/07/15 13:00:24;;;;;;;4.10;1.55;;;22.30;91.10;;;;;;4937776;29;20104;-44
2022/07/15 13:03:03;;;;;;;1.58;0.88;;;22.40;91.30;;;;;;4939730;29;20051;-47
2022/07/15 13:05:33;;;;;;;2.08;1.17;;;22.60;90.90;;;;;;4945608;28;20054;-43
2022/07/15 13:07:59;;;;;;;3.70;1.10;;;22.70;90.20;;;;;;4940651;29;20114;-43
2022/07/15 13:10:28;;;;;;;1.80;0.95;;;22.90;90.50;;;;;;4953440;28;20099;-46
2022/07/15 13:12:55;;;;;;;1.95;1.05;;;23.00;91.20;;;;;;4950623;28;20130;-46
2022/07/15 13:15:20;;;;;;;3.28;1.00;;;23.10;90.40;;;;;;4937274;28;20067;-45